METAR AND TAF INFORMATION
METAR FOR KCPS
ADDS - METARS form results

(0522 UTC 23 January 2019)
Data provider http://aviationweather.gov/metar/data/
 
METAR text: KCPS 230507Z AUTO 00000KT 6SM -RA BR OVC011 06/06 A2983 RMK AO2 P0002 T00610056
Conditions at: KCPS (CAHOKIA/ST LOUIS, IL, US) observed 0507 UTC 23 January 2019
Temperature: 6.1°C (43°F)
Dewpoint: 5.6°C (42°F) [RH = 97%]
Pressure (altimeter): 29.83 inches Hg (1010.2 mb)
Winds: calm
Visibility: 6 miles (10 km)
Ceiling: 1100 feet AGL
Clouds: overcast cloud deck at 1100 feet AGL
Weather: -RA BR  (light rain, mist)

METAR text: KCPS 230458Z AUTO 00000KT 5SM RA BR BKN009 OVC016 06/06 A2983 RMK AO2 P0001 T00610056
Conditions at: KCPS (CAHOKIA/ST LOUIS, IL, US) observed 0458 UTC 23 January 2019
Temperature: 6.1°C (43°F)
Dewpoint: 5.6°C (42°F) [RH = 97%]
Pressure (altimeter): 29.83 inches Hg (1010.2 mb)
Winds: calm
Visibility: 5 miles ( 8 km)
Ceiling: 900 feet AGL
Clouds: broken clouds at 900 feet AGL
overcast cloud deck at 1600 feet AGL
Weather: RA BR  (moderate rain, mist)

METAR text: KCPS 230453Z AUTO 16005KT 5SM RA BR BKN012 OVC018 06/05 A2983 RMK AO2 SLP103 P0022 T00610050
Conditions at: KCPS (CAHOKIA/ST LOUIS, IL, US) observed 0453 UTC 23 January 2019
Temperature: 6.1°C (43°F)
Dewpoint: 5.0°C (41°F) [RH = 93%]
Pressure (altimeter): 29.83 inches Hg (1010.2 mb)
[Sea-level pressure: 1010.3 mb]
Winds: from the SSE (160 degrees) at 6 MPH (5 knots; 2.6 m/s)
Visibility: 5 miles ( 8 km)
Ceiling: 1200 feet AGL
Clouds: broken clouds at 1200 feet AGL
overcast cloud deck at 1800 feet AGL
Weather: RA BR  (moderate rain, mist)

METAR text: KCPS 230450Z AUTO 15005KT 5SM RA BR SCT010 OVC014 06/06 A2983 RMK AO2 P0021
Conditions at: KCPS (CAHOKIA/ST LOUIS, IL, US) observed 0450 UTC 23 January 2019
Temperature: 6.0°C (43°F)
Dewpoint: 6.0°C (43°F) [RH = 100%]
Pressure (altimeter): 29.83 inches Hg (1010.2 mb)
Winds: from the SSE (150 degrees) at 6 MPH (5 knots; 2.6 m/s)
Visibility: 5 miles ( 8 km)
Ceiling: 1400 feet AGL
Clouds: scattered clouds at 1000 feet AGL
overcast cloud deck at 1400 feet AGL
Weather: RA BR  (moderate rain, mist)

METAR text: KCPS 230443Z AUTO 26005KT 4SM RA BR BKN008 OVC015 06/06 A2984 RMK AO2 P0019 T00610056
Conditions at: KCPS (CAHOKIA/ST LOUIS, IL, US) observed 0443 UTC 23 January 2019
Temperature: 6.1°C (43°F)
Dewpoint: 5.6°C (42°F) [RH = 97%]
Pressure (altimeter): 29.84 inches Hg (1010.6 mb)
Winds: from the W (260 degrees) at 6 MPH (5 knots; 2.6 m/s)
Visibility: 4 miles ( 6 km)
Ceiling: 800 feet AGL
Clouds: broken clouds at 800 feet AGL
overcast cloud deck at 1500 feet AGL
Weather: RA BR  (moderate rain, mist)

METAR text: KCPS 230433Z AUTO 15006KT 3SM +RA BR SCT008 BKN013 OVC018 06/05 A2983 RMK AO2 P0017 T00610050
Conditions at: KCPS (CAHOKIA/ST LOUIS, IL, US) observed 0433 UTC 23 January 2019
Temperature: 6.1°C (43°F)
Dewpoint: 5.0°C (41°F) [RH = 93%]
Pressure (altimeter): 29.83 inches Hg (1010.2 mb)
Winds: from the SSE (150 degrees) at 7 MPH (6 knots; 3.1 m/s)
Visibility: 3 miles ( 5 km)
Ceiling: 1300 feet AGL
Clouds: scattered clouds at 800 feet AGL
broken clouds at 1300 feet AGL
overcast cloud deck at 1800 feet AGL
Weather: +RA BR  (heavy rain, mist)

METAR text: KCPS 230428Z AUTO 17006KT 2 1/2SM RA BR BKN008 OVC013 06/05 A2983 RMK AO2 P0013 T00610050
Conditions at: KCPS (CAHOKIA/ST LOUIS, IL, US) observed 0428 UTC 23 January 2019
Temperature: 6.1°C (43°F)
Dewpoint: 5.0°C (41°F) [RH = 93%]
Pressure (altimeter): 29.83 inches Hg (1010.2 mb)
Winds: from the S (170 degrees) at 7 MPH (6 knots; 3.1 m/s)
Visibility: 2.50 miles (4.02 km)
Ceiling: 800 feet AGL
Clouds: broken clouds at 800 feet AGL
overcast cloud deck at 1300 feet AGL
Weather: RA BR  (moderate rain, mist)

Forecast for: KCPS (CAHOKIA/ST LOUIS, IL, US)
Text: KCPS 222331Z 2300/2324 17012G20KT 6SM -RA BR OVC020 WS015/18045KT
Forecast period: 0000 to 0400 UTC 23 January 2019
Forecast type: FROM: standard forecast or significant change
Winds: from the S (170 degrees) at 14 MPH (12 knots; 6.2 m/s)
gusting to 23 MPH (20 knots; 10.3 m/s)
Visibility: 6 miles (10 km)
Ceiling: 2000 feet AGL
Clouds: overcast cloud deck at 2000 feet AGL
Wind Shear: at 1500 feet ( 457 m) AGL, from the S (180 degrees) at 52 MPH (45 knots; 23.4 m/s)
Weather: -RA BR  (light rain, mist)
Text: TEMPO 2300/2304 4SM -RA BR OVC014
Forecast period: 0000 to 0400 UTC 23 January 2019
Forecast type: TEMPORARY: The following changes expected for less than half the time period
Visibility: 4 miles (6 km)
Ceiling: 1400 feet AGL
Clouds: overcast cloud deck at 1400 feet AGL
Weather: -RA BR  (light rain, mist)
Text: FM230400 18012KT 4SM -RA BR OVC012 WS015/19040KT
Forecast period: 0400 to 1200 UTC 23 January 2019
Forecast type: FROM: standard forecast or significant change
Winds: from the S (180 degrees) at 14 MPH (12 knots; 6.2 m/s)
Visibility: 4 miles (6 km)
Ceiling: 1200 feet AGL
Clouds: overcast cloud deck at 1200 feet AGL
Wind Shear: at 1500 feet ( 457 m) AGL, from the S (190 degrees) at 46 MPH (40 knots; 20.8 m/s)
Weather: -RA BR  (light rain, mist)
Text: FM231200 26011G21KT P6SM VCSH OVC007
Forecast period: 1200 to 1400 UTC 23 January 2019
Forecast type: FROM: standard forecast or significant change
Winds: from the W (260 degrees) at 13 MPH (11 knots; 5.7 m/s)
gusting to 24 MPH (21 knots; 10.8 m/s)
Visibility: 6 or more miles 10+ km)
Ceiling: 700 feet AGL
Clouds: overcast cloud deck at 700 feet AGL
Weather: VCSH  (showers in vicinity)
Text: FM231400 27013G23KT P6SM OVC006
Forecast period: 1400 to 2000 UTC 23 January 2019
Forecast type: FROM: standard forecast or significant change
Winds: from the W (270 degrees) at 15 MPH (13 knots; 6.7 m/s)
gusting to 26 MPH (23 knots; 11.8 m/s)
Visibility: 6 or more miles 10+ km)
Ceiling: 600 feet AGL
Clouds: overcast cloud deck at 600 feet AGL
Weather: no significant weather forecast for this period
Text: FM232000 29013G20KT P6SM BKN022
Forecast period: 2000 UTC 23 January 2019 to 0000 UTC 24 January 2019
Forecast type: FROM: standard forecast or significant change
Winds: from the WNW (290 degrees) at 15 MPH (13 knots; 6.7 m/s)
gusting to 23 MPH (20 knots; 10.3 m/s)
Visibility: 6 or more miles 10+ km)
Ceiling: 2200 feet AGL
Clouds: broken clouds at 2200 feet AGL
Weather: no significant weather forecast for this period

 AIRPORT MAP

 RUNWAY INFORMATION
Runway 05 Runway length 2799 ft Runway width 75 ft
Runway elevation 410 ft Runway displaced threshold 0 ft Runway heading 47
Runway 23 Runway length 2799 ft Runway width 75 ft
Runway elevation 409 ft Runway displaced threshold 0 ft Runway heading 227
Runway 12L Runway length 3800 ft Runway width 75 ft
Runway elevation 411 ft Runway displaced threshold 0 ft Runway heading 122
Runway 30R Runway length 3800 ft Runway width 75 ft
Runway elevation 407 ft Runway displaced threshold 0 ft Runway heading 302
Runway 12R Runway length 6997 ft Runway width 100 ft
Runway elevation 413 ft Runway displaced threshold 0 ft Runway heading 122
Runway 30L Runway length 6997 ft Runway width 100 ft
Runway elevation 408 ft Runway displaced threshold 0 ft Runway heading 302

 AIRPORT FREQUENCIES
Type A/D Name APP/DEP Frequency 123.7 MHZ
Type ASOS Name ASOS Frequency 127.85 MHZ
Type ATIS Name ATIS Frequency 127.85 MHZ
Type CLD Name CLNC DEL Frequency 121.8 MHZ
Type CTAF Name CTAF Frequency 120.9 MHZ
Type GND Name GND Frequency 121.8 MHZ
Type TWR Name DOWNTOWN T Frequency 120.9 MHZ
Type UNIC Name UNICOM Frequency 122.95 MHZ

 AIRPORT NEAR NAVIGATION AIDS



Powered by Virtual Airlines Manager [[v2.6.2]]